createdAt,value
2023-05-14T00:00:13.047Z,62.26
2023-05-14T00:10:13.598Z,62.36
2023-05-14T00:20:21.495Z,61.75
2023-05-14T00:30:14.656Z,62.16
2023-05-14T00:40:15.230Z,62.26
2023-05-14T00:50:15.790Z,62.59
2023-05-14T01:00:16.354Z,63.10
2023-05-14T01:10:16.892Z,62.90
2023-05-14T01:20:17.461Z,63.64
2023-05-14T01:30:17.982Z,64.04
2023-05-14T01:40:18.558Z,63.74
2023-05-14T01:50:19.088Z,64.48
2023-05-14T02:00:19.660Z,64.79
2023-05-14T02:10:20.180Z,64.61
2023-05-14T02:20:20.981Z,64.41
2023-05-14T02:30:21.831Z,62.85
2023-05-14T02:40:22.262Z,62.75
2023-05-14T02:50:22.552Z,60.92
2023-05-14T03:00:23.453Z,61.02
2023-05-14T03:10:24.230Z,61.20
2023-05-14T03:20:24.676Z,60.69
2023-05-14T03:30:25.625Z,59.57
2023-05-14T03:40:26.025Z,58.76
2023-05-14T03:50:26.553Z,58.86
2023-05-14T04:00:27.114Z,58.96
2023-05-14T04:10:27.627Z,58.45
2023-05-14T04:20:28.157Z,57.92
2023-05-14T04:30:28.646Z,57.28
2023-05-14T04:40:29.151Z,57.92
2023-05-14T04:50:29.646Z,57.84
2023-05-14T05:00:30.165Z,49.96
2023-05-14T05:10:30.638Z,47.38
2023-05-14T05:20:31.224Z,48.68
2023-05-14T05:30:31.686Z,50.54
2023-05-14T05:40:32.203Z,50.21
2023-05-14T05:50:32.671Z,49.13
2023-05-14T06:00:33.216Z,48.93
2023-05-14T06:10:33.754Z,47.79
2023-05-14T06:20:34.250Z,47.26
2023-05-14T06:30:41.753Z,46.56
2023-05-14T06:40:35.259Z,46.76
2023-05-14T06:50:35.978Z,46.53
2023-05-14T07:00:36.614Z,47.24
2023-05-14T07:10:37.126Z,46.33
2023-05-14T07:20:37.626Z,45.81
2023-05-14T07:30:38.104Z,45.78
2023-05-14T07:40:45.624Z,44.45
2023-05-14T07:50:39.155Z,43.18
2023-05-14T08:00:39.719Z,41.63
2023-05-14T08:10:40.292Z,41.11
2023-05-14T08:20:40.773Z,41.61
2023-05-14T08:30:41.315Z,40.81
2023-05-14T08:40:41.834Z,40.06
2023-05-14T08:50:42.390Z,39.73
2023-05-14T09:00:42.891Z,40.39
2023-05-14T09:10:43.386Z,38.20
2023-05-14T09:20:43.921Z,37.77
2023-05-14T09:30:44.396Z,39.09
2023-05-14T09:40:44.942Z,39.09
2023-05-14T09:50:45.655Z,36.48
2023-05-14T10:00:46.219Z,36.78
2023-05-14T10:10:46.747Z,36.68
2023-05-14T10:20:47.630Z,37.79
2023-05-14T10:30:48.126Z,38.53
2023-05-14T10:40:48.654Z,37.18
2023-05-14T10:50:49.185Z,37.02
2023-05-14T11:00:49.981Z,37.30
2023-05-14T11:10:51.038Z,37.54
2023-05-14T11:20:51.072Z,38.24
2023-05-14T11:30:51.759Z,37.90
2023-05-14T11:40:52.373Z,37.08
2023-05-14T11:50:53.037Z,37.59
2023-05-14T12:00:53.826Z,38.51
2023-05-14T12:10:54.421Z,38.42
2023-05-14T12:20:55.046Z,38.51
2023-05-14T12:30:56.773Z,38.87
2023-05-14T12:40:56.321Z,36.75
2023-05-14T12:50:56.853Z,36.13
2023-05-14T13:00:57.461Z,35.03
2023-05-14T13:10:58.008Z,34.84
2023-05-14T13:21:06.520Z,35.66
2023-05-14T13:31:06.066Z,35.39
2023-05-14T13:40:59.679Z,34.99
2023-05-14T13:51:00.217Z,34.16
2023-05-14T14:01:00.792Z,34.26
2023-05-14T14:11:08.242Z,35.05
2023-05-14T14:21:01.737Z,35.93
2023-05-14T14:31:02.209Z,35.16
2023-05-14T14:41:02.736Z,35.08
2023-05-14T14:51:03.214Z,34.59
2023-05-14T15:01:03.774Z,34.69
2023-05-14T15:11:04.240Z,35.50
2023-05-14T15:21:04.765Z,36.50
2023-05-14T15:31:05.298Z,36.60
2023-05-14T15:41:05.810Z,35.31
2023-05-14T15:51:06.294Z,35.61
2023-05-14T16:01:06.811Z,36.80
2023-05-14T16:11:07.278Z,36.61
2023-05-14T16:21:07.780Z,36.72
2023-05-14T16:31:08.262Z,37.74
2023-05-14T16:41:08.775Z,37.44
2023-05-14T16:51:09.263Z,37.96
2023-05-14T17:01:10.173Z,38.98
2023-05-14T17:11:10.222Z,39.08
2023-05-14T17:21:10.752Z,39.70
2023-05-14T17:31:11.266Z,41.11
2023-05-14T17:41:11.838Z,41.71
2023-05-14T17:51:12.336Z,41.73
2023-05-14T18:01:12.927Z,42.13
2023-05-14T18:11:13.436Z,42.66
2023-05-14T18:21:13.990Z,43.28
2023-05-14T18:31:14.465Z,45.12
2023-05-14T18:41:15.065Z,46.25
2023-05-14T18:51:15.516Z,47.38
2023-05-14T19:01:16.047Z,48.49
2023-05-14T19:11:16.511Z,49.01
2023-05-14T19:21:17.160Z,50.15
2023-05-14T19:31:17.643Z,50.78
2023-05-14T19:41:18.209Z,51.58
2023-05-14T19:51:18.745Z,53.02
2023-05-14T20:01:19.470Z,54.16
2023-05-14T20:11:20.069Z,54.69
2023-05-14T20:21:20.634Z,55.29
2023-05-14T20:31:21.197Z,55.82
2023-05-14T20:41:21.740Z,56.23
2023-05-14T20:51:22.284Z,56.56
2023-05-14T21:01:22.886Z,57.09
2023-05-14T21:11:23.474Z,57.60
2023-05-14T21:21:24.056Z,58.23
2023-05-14T21:31:24.600Z,58.54
2023-05-14T21:41:25.158Z,58.76
2023-05-14T21:51:25.701Z,59.61
2023-05-14T22:01:38.555Z,59.81
2023-05-14T22:11:27.752Z,61.05
2023-05-14T22:21:28.364Z,61.76
2023-05-14T22:31:27.924Z,62.10
2023-05-14T22:41:28.489Z,62.71
2023-05-14T22:51:29.020Z,63.04
2023-05-14T23:01:29.648Z,63.37
2023-05-14T23:11:30.190Z,63.78
2023-05-14T23:21:30.759Z,63.78
2023-05-14T23:31:31.412Z,64.39
2023-05-14T23:41:32.032Z,65.10
2023-05-14T23:51:32.523Z,65.84
